Time;durP1;ratioP1;P1;durP2;ratioP2;P2;SDS_P1;SDS_P2;PMS_P1;PMS_P2;Temp;Humidity;BMP_temperature;BMP_pressure;BME280_temperature;BME280_humidity;BME280_pressure;Samples;Min_cycle;Max_cycle;Signal;HPM_P1;HPM_P2
2023/08/31 00:02:14;;;;;;;6.93;2.00;;;13.00;99.90;;;;;;5068071;28;20050;-83
2023/08/31 00:04:41;;;;;;;7.82;2.08;;;12.90;99.90;;;;;;5042669;28;20132;-84
2023/08/31 00:07:09;;;;;;;4.80;1.90;;;12.90;99.90;;;;;;5046144;28;20047;-83
2023/08/31 00:09:36;;;;;;;5.38;1.77;;;12.90;99.90;;;;;;5070799;28;20049;-84
2023/08/31 00:12:02;;;;;;;10.07;2.10;;;12.90;99.90;;;;;;5047164;28;20093;-81
2023/08/31 00:14:29;;;;;;;7.68;2.03;;;12.90;99.90;;;;;;5074787;28;20044;-83
2023/08/31 00:16:57;;;;;;;6.45;1.83;;;12.90;99.90;;;;;;5059203;28;20040;-81
2023/08/31 00:19:24;;;;;;;9.00;1.98;;;12.90;99.90;;;;;;5046213;28;20095;-82
2023/08/31 00:21:51;;;;;;;6.30;2.33;;;12.90;99.90;;;;;;5069605;28;20079;-84
2023/08/31 00:24:25;;;;;;;7.70;1.73;;;13.00;99.90;;;;;;5049774;28;20048;-82
2023/08/31 00:26:53;;;;;;;6.65;1.95;;;12.90;99.90;;;;;;5044254;28;20118;-82
2023/08/31 00:29:20;;;;;;;8.60;2.05;;;12.90;99.90;;;;;;5059269;28;20174;-85
2023/08/31 00:31:48;;;;;;;12.80;2.00;;;12.90;99.90;;;;;;5056452;28;20051;-84
2023/08/31 00:34:17;;;;;;;5.18;1.65;;;12.80;99.90;;;;;;5038674;28;20040;-84
2023/08/31 00:36:44;;;;;;;7.28;2.13;;;12.80;99.90;;;;;;5039774;28;20048;-83
2023/08/31 00:39:10;;;;;;;4.97;1.70;;;12.80;99.90;;;;;;5051987;28;20501;-84
2023/08/31 00:41:39;;;;;;;8.73;2.20;;;12.70;99.90;;;;;;5051387;28;20036;-82
2023/08/31 00:44:05;;;;;;;5.50;2.03;;;12.70;99.90;;;;;;5042225;28;20044;-82
2023/08/31 00:46:32;;;;;;;10.40;2.47;;;12.60;99.90;;;;;;5057813;28;20037;-82
2023/08/31 00:51:50;;;;;;;6.47;2.15;;;12.60;99.90;;;;;;5086238;28;20554;-84
2023/08/31 00:54:19;;;;;;;;;;;12.60;99.90;;;;;;5088843;28;20151;-84
2023/08/31 00:56:47;;;;;;;7.20;1.85;;;12.60;99.90;;;;;;5087238;28;19920;-84
2023/08/31 00:59:14;;;;;;;8.05;1.90;;;12.50;99.90;;;;;;5089675;28;20050;-84
2023/08/31 01:01:43;;;;;;;13.38;2.28;;;12.50;99.90;;;;;;5094461;28;20051;-83
2023/08/31 01:04:09;;;;;;;8.20;1.90;;;12.50;99.90;;;;;;5095400;28;20058;-83
2023/08/31 01:06:36;;;;;;;6.22;1.88;;;12.50;99.90;;;;;;5094099;28;20491;-83
2023/08/31 01:09:07;;;;;;;8.30;2.08;;;12.50;99.90;;;;;;5078787;28;20071;-81
2023/08/31 01:11:37;;;;;;;;;;;12.40;99.90;;;;;;5091594;28;20371;-84
2023/08/31 01:14:04;;;;;;;7.72;2.10;;;12.40;99.90;;;;;;5084556;28;19920;-84
2023/08/31 01:16:31;;;;;;;10.85;2.30;;;12.30;99.90;;;;;;5095067;28;20505;-81
2023/08/31 01:19:00;;;;;;;6.25;2.05;;;12.30;99.90;;;;;;5094997;28;20055;-82
2023/08/31 01:21:27;;;;;;;7.50;1.60;;;12.30;99.90;;;;;;5095092;28;20072;-84
2023/08/31 01:23:53;;;;;;;11.05;2.17;;;12.30;99.90;;;;;;5096001;28;20509;-83
2023/08/31 01:26:20;;;;;;;6.75;1.80;;;12.40;99.90;;;;;;5083339;28;20064;-85
2023/08/31 01:28:49;;;;;;;5.80;1.83;;;12.40;99.90;;;;;;5075365;28;20097;-81
2023/08/31 01:31:16;;;;;;;5.95;1.90;;;12.40;99.90;;;;;;5070075;28;20036;-83
2023/08/31 01:33:43;;;;;;;8.65;2.05;;;12.40;99.90;;;;;;5093576;28;20089;-82
2023/08/31 01:36:10;;;;;;;5.53;1.92;;;12.40;99.90;;;;;;5083801;28;20051;-82
2023/08/31 01:38:37;;;;;;;6.93;2.03;;;12.40;99.90;;;;;;5085069;28;20064;-82
2023/08/31 01:41:04;;;;;;;5.93;2.17;;;12.40;99.90;;;;;;5083389;28;20063;-83
2023/08/31 01:43:31;;;;;;;6.60;1.98;;;12.40;99.90;;;;;;5073854;28;20051;-83
2023/08/31 01:45:59;;;;;;;5.97;1.95;;;12.40;99.90;;;;;;5086869;28;20063;-85
2023/08/31 01:48:26;;;;;;;5.30;2.00;;;12.40;99.90;;;;;;5070355;28;20374;-81
2023/08/31 01:50:53;;;;;;;6.82;2.17;;;12.30;99.90;;;;;;5074121;28;20048;-82
2023/08/31 01:53:20;;;;;;;6.18;2.03;;;12.30;99.90;;;;;;5076649;28;20576;-81
2023/08/31 01:55:46;;;;;;;6.60;2.22;;;12.20;99.90;;;;;;5063231;28;20058;-81
2023/08/31 01:58:14;;;;;;;6.60;2.13;;;12.20;99.90;;;;;;5063363;28;20101;-83
2023/08/31 02:00:41;;;;;;;6.07;2.00;;;12.20;99.90;;;;;;5080927;28;20048;-83
2023/08/31 02:03:08;;;;;;;6.90;2.20;;;12.20;99.90;;;;;;5087826;28;20040;-84
2023/08/31 02:05:35;;;;;;;7.53;2.20;;;12.20;99.90;;;;;;5084482;28;20143;-83
2023/08/31 02:10:50;;;;;;;7.55;1.90;;;12.10;99.90;;;;;;5094089;28;20056;-83
2023/08/31 02:13:22;;;;;;;7.00;2.10;;;12.10;99.90;;;;;;5088411;28;20074;-85
2023/08/31 02:15:48;;;;;;;5.78;1.85;;;12.20;99.90;;;;;;5068471;28;20060;-82
2023/08/31 02:18:15;;;;;;;3.92;1.48;;;12.20;99.90;;;;;;5077641;28;20356;-81
2023/08/31 02:20:42;;;;;;;4.75;1.80;;;12.10;99.90;;;;;;5074545;28;20040;-82
2023/08/31 02:23:09;;;;;;;5.07;1.88;;;12.10;99.90;;;;;;5075024;28;20048;-83
2023/08/31 02:25:36;;;;;;;9.50;1.88;;;12.10;99.90;;;;;;5093638;28;20390;-83
2023/08/31 02:28:05;;;;;;;4.78;1.70;;;12.20;99.90;;;;;;5076315;28;20048;-83
2023/08/31 02:30:32;;;;;;;6.93;1.75;;;12.10;99.90;;;;;;5088413;28;20049;-83
2023/08/31 02:32:59;;;;;;;5.38;1.83;;;12.10;99.90;;;;;;5085380;28;20044;-82
2023/08/31 02:35:26;;;;;;;2.95;1.30;;;12.10;99.90;;;;;;5093397;28;20502;-85
2023/08/31 02:37:55;;;;;;;6.10;1.70;;;12.10;99.90;;;;;;5094794;28;20048;-81
2023/08/31 02:40:22;;;;;;;8.20;2.17;;;12.10;99.90;;;;;;5079812;28;20053;-84
2023/08/31 02:42:48;;;;;;;6.22;2.00;;;12.20;99.90;;;;;;5078336;28;20105;-83
2023/08/31 02:45:16;;;;;;;5.35;1.63;;;12.20;99.90;;;;;;5075066;28;20528;-82
2023/08/31 02:47:46;;;;;;;6.97;2.05;;;12.20;99.90;;;;;;5067702;28;20032;-83
2023/08/31 02:50:13;;;;;;;7.07;2.00;;;12.20;99.90;;;;;;5097458;28;20071;-83
2023/08/31 02:52:39;;;;;;;4.07;1.65;;;12.20;99.90;;;;;;5084037;28;20140;-84
2023/08/31 02:55:06;;;;;;;3.70;1.65;;;12.20;99.90;;;;;;5097838;28;20123;-81
2023/08/31 02:57:34;;;;;;;8.57;1.88;;;12.20;99.90;;;;;;5097525;28;20052;-84
2023/08/31 03:00:01;;;;;;;5.63;1.77;;;12.20;99.90;;;;;;5090027;28;20041;-82
2023/08/31 03:02:28;;;;;;;5.50;1.50;;;12.20;99.90;;;;;;5090437;28;20437;-80
2023/08/31 03:04:55;;;;;;;6.15;1.75;;;12.20;99.90;;;;;;5094880;28;20040;-83
2023/08/31 03:07:23;;;;;;;5.57;1.88;;;12.20;99.90;;;;;;5079630;28;20036;-83
2023/08/31 03:09:50;;;;;;;5.30;1.85;;;12.10;99.90;;;;;;5083871;28;20048;-81
2023/08/31 03:12:17;;;;;;;5.57;1.73;;;12.20;99.90;;;;;;5097222;28;20415;-82
2023/08/31 03:14:44;;;;;;;3.97;1.52;;;12.20;99.90;;;;;;5095343;28;20051;-81
2023/08/31 03:19:58;;;;;;;6.18;2.00;;;12.20;99.90;;;;;;5078880;28;20048;-81
2023/08/31 03:22:24;;;;;;;4.78;1.83;;;12.10;99.90;;;;;;5087148;28;20414;-83
2023/08/31 03:24:51;;;;;;;5.68;1.80;;;12.10;99.90;;;;;;5082990;28;20036;-83
2023/08/31 03:27:21;;;;;;;5.05;1.63;;;12.10;99.90;;;;;;5096155;28;20478;-85
2023/08/31 03:29:48;;;;;;;5.35;1.70;;;12.10;99.90;;;;;;5066556;28;20048;-83
2023/08/31 03:32:15;;;;;;;5.00;1.73;;;12.10;99.90;;;;;;5083861;28;20101;-82
2023/08/31 03:34:42;;;;;;;4.07;1.58;;;12.10;99.90;;;;;;5075843;28;20060;-83
2023/08/31 03:37:12;;;;;;;7.53;2.03;;;12.20;99.90;;;;;;5095106;28;20055;-80
2023/08/31 03:39:41;;;;;;;5.55;1.83;;;12.20;99.90;;;;;;5096309;28;20052;-83
2023/08/31 03:42:07;;;;;;;5.00;1.50;;;12.20;99.90;;;;;;5096605;28;20066;-81
2023/08/31 03:44:34;;;;;;;4.50;1.60;;;12.20;99.90;;;;;;5088286;28;20036;-83
2023/08/31 03:47:01;;;;;;;5.25;1.70;;;12.10;99.90;;;;;;5089942;28;20064;-83
2023/08/31 03:49:28;;;;;;;4.40;1.70;;;12.20;99.90;;;;;;5059791;28;20049;-84
2023/08/31 03:51:55;;;;;;;6.38;1.73;;;12.20;99.90;;;;;;5054143;28;20044;-83
2023/08/31 03:54:22;;;;;;;5.53;1.50;;;12.20;99.90;;;;;;5044750;28;20073;-84
2023/08/31 03:56:49;;;;;;;5.72;2.13;;;12.20;99.90;;;;;;5059455;28;20056;-81
2023/08/31 03:59:16;;;;;;;6.22;1.98;;;12.20;99.90;;;;;;5060032;28;20131;-84
2023/08/31 04:01:43;;;;;;;5.65;1.77;;;12.20;99.90;;;;;;5058910;28;20043;-82
2023/08/31 04:04:11;;;;;;;6.18;1.90;;;12.30;99.90;;;;;;5046423;28;20061;-83
2023/08/31 04:06:38;;;;;;;6.15;2.05;;;12.30;99.90;;;;;;5039888;28;20045;-82
2023/08/31 04:09:05;;;;;;;4.05;1.50;;;12.30;99.90;;;;;;5051289;28;20362;-85
2023/08/31 04:11:33;;;;;;;7.38;1.80;;;12.20;99.90;;;;;;5041741;28;20369;-83
2023/08/31 04:13:59;;;;;;;5.97;1.60;;;12.20;99.90;;;;;;5038794;28;20418;-83
2023/08/31 04:16:26;;;;;;;5.57;2.00;;;12.20;99.90;;;;;;5070620;28;20040;-84
2023/08/31 04:18:53;;;;;;;8.93;2.05;;;12.20;99.90;;;;;;5065246;28;20071;-83
2023/08/31 04:21:20;;;;;;;4.80;1.73;;;12.20;99.90;;;;;;5041724;28;20109;-82
2023/08/31 04:23:46;;;;;;;5.07;1.83;;;12.20;99.90;;;;;;5053059;28;20139;-81
2023/08/31 04:26:13;;;;;;;5.55;1.65;;;12.20;99.90;;;;;;5069189;28;20047;-82
2023/08/31 04:28:42;;;;;;;4.35;1.60;;;12.20;99.90;;;;;;5056911;28;20379;-79
2023/08/31 04:31:09;;;;;;;4.80;1.70;;;12.20;99.90;;;;;;5049858;28;20052;-80
2023/08/31 04:33:35;;;;;;;5.53;1.60;;;12.20;99.90;;;;;;5058138;28;20066;-82
2023/08/31 04:36:03;;;;;;;6.03;2.03;;;12.20;99.90;;;;;;5058610;28;20137;-81
2023/08/31 04:38:31;;;;;;;6.93;1.80;;;12.20;99.90;;;;;;5058724;28;20056;-82
2023/08/31 04:40:58;;;;;;;7.97;2.10;;;12.20;99.90;;;;;;5050397;28;20045;-84
2023/08/31 04:43:25;;;;;;;5.35;1.90;;;12.20;99.90;;;;;;5032771;28;20079;-82
2023/08/31 04:45:51;;;;;;;8.43;1.90;;;12.20;99.90;;;;;;5045093;28;20080;-84
2023/08/31 04:48:18;;;;;;;8.27;2.00;;;12.20;99.90;;;;;;5062890;28;20432;-81
2023/08/31 04:50:45;;;;;;;5.45;1.70;;;12.10;99.90;;;;;;5070560;28;20482;-84
2023/08/31 04:53:12;;;;;;;7.00;1.63;;;12.10;99.90;;;;;;5051595;28;20044;-81
2023/08/31 04:55:39;;;;;;;7.25;2.10;;;12.10;99.90;;;;;;5068770;28;20055;-84
2023/08/31 04:58:08;;;;;;;7.10;1.83;;;12.10;99.90;;;;;;5070972;28;20041;-81
2023/08/31 05:00:34;;;;;;;7.25;1.73;;;12.10;99.90;;;;;;5036986;28;20064;-85
2023/08/31 05:03:04;;;;;;;4.93;1.70;;;12.10;99.90;;;;;;5069884;28;20044;-84
2023/08/31 05:05:30;;;;;;;5.57;1.63;;;12.10;99.90;;;;;;5048233;28;20029;-82
2023/08/31 05:08:01;;;;;;;5.35;1.85;;;12.10;99.90;;;;;;5057652;28;20109;-83
2023/08/31 05:10:28;;;;;;;5.25;1.90;;;12.20;99.90;;;;;;5049483;28;20044;-82
2023/08/31 05:12:54;;;;;;;7.75;1.70;;;12.30;99.90;;;;;;5039516;28;20052;-82
2023/08/31 05:15:22;;;;;;;6.20;2.05;;;12.20;99.90;;;;;;5057059;28;20037;-81
2023/08/31 05:17:49;;;;;;;5.05;1.73;;;12.30;99.90;;;;;;5041468;28;20136;-82
2023/08/31 05:20:17;;;;;;;4.90;1.58;;;12.30;99.90;;;;;;5037658;28;20547;-85
2023/08/31 05:22:44;;;;;;;11.52;2.08;;;12.30;99.90;;;;;;5067310;28;20029;-83
2023/08/31 05:25:10;;;;;;;7.55;1.90;;;12.40;99.90;;;;;;5053719;28;20049;-84
2023/08/31 05:27:37;;;;;;;6.32;1.90;;;12.40;99.90;;;;;;5054609;28;20041;-82
2023/08/31 05:30:04;;;;;;;7.80;2.05;;;12.40;99.90;;;;;;5040179;28;20092;-84
2023/08/31 05:32:31;;;;;;;11.55;2.00;;;12.50;99.90;;;;;;5049435;28;20464;-83
2023/08/31 05:34:59;;;;;;;4.57;1.73;;;12.50;99.90;;;;;;5048754;28;20109;-81
2023/08/31 05:40:12;;;;;;;3.83;1.65;;;12.50;99.90;;;;;;5074414;28;20447;-82
2023/08/31 05:42:38;;;;;;;6.72;2.17;;;12.50;99.90;;;;;;5075083;28;20037;-83
2023/08/31 05:45:05;;;;;;;7.78;2.08;;;12.50;99.90;;;;;;5075394;28;20041;-85
2023/08/31 05:47:34;;;;;;;9.95;1.98;;;12.50;99.90;;;;;;5050625;28;20136;-83
2023/08/31 05:50:02;;;;;;;9.80;2.20;;;12.50;99.90;;;;;;5059414;28;20136;-83
2023/08/31 05:52:29;;;;;;;4.68;1.80;;;12.50;99.90;;;;;;5021802;28;20045;-83
2023/08/31 05:54:56;;;;;;;7.00;2.05;;;12.50;99.90;;;;;;5056705;28;20383;-82
2023/08/31 05:57:23;;;;;;;8.15;2.10;;;12.50;99.90;;;;;;5074666;28;20437;-84
2023/08/31 05:59:50;;;;;;;4.30;1.63;;;12.60;99.90;;;;;;5056348;28;20132;-82
2023/08/31 06:02:17;;;;;;;6.82;2.03;;;12.60;99.90;;;;;;5040875;28;20060;-81
2023/08/31 06:04:44;;;;;;;4.78;1.80;;;12.60;99.90;;;;;;5057438;28;20408;-82
2023/08/31 06:07:12;;;;;;;8.02;2.08;;;12.60;99.90;;;;;;5046655;28;20041;-82
2023/08/31 06:09:46;;;;;;;4.80;1.92;;;12.70;99.90;;;;;;5053139;28;20406;-84
2023/08/31 06:12:13;;;;;;;5.65;1.92;;;12.80;99.90;;;;;;5057485;28;20127;-83
2023/08/31 06:14:40;;;;;;;6.03;1.85;;;12.90;99.90;;;;;;5055098;28;20044;-83
2023/08/31 06:17:08;;;;;;;4.60;1.95;;;13.00;99.90;;;;;;5061975;28;20047;-83
2023/08/31 06:19:38;;;;;;;9.15;1.95;;;13.10;99.90;;;;;;5060538;28;20529;-83
2023/08/31 06:22:04;;;;;;;7.07;2.10;;;13.20;99.90;;;;;;5057226;28;20033;-84
2023/08/31 06:24:32;;;;;;;11.57;2.20;;;13.30;99.90;;;;;;5044692;28;20049;-83
2023/08/31 06:26:59;;;;;;;7.22;2.88;;;13.40;99.90;;;;;;5036225;28;20130;-81
2023/08/31 06:29:26;;;;;;;7.32;2.28;;;13.40;99.90;;;;;;5037079;28;20045;-84
2023/08/31 06:31:53;;;;;;;7.10;2.03;;;13.50;99.90;;;;;;5068561;28;20060;-85
2023/08/31 06:34:19;;;;;;;11.05;1.88;;;13.60;99.90;;;;;;5063063;28;20587;-83
2023/08/31 06:36:46;;;;;;;7.28;2.38;;;13.70;99.90;;;;;;5072996;28;20463;-83
2023/08/31 06:39:13;;;;;;;10.98;2.10;;;13.80;99.90;;;;;;5044615;28;20451;-84
2023/08/31 06:41:40;;;;;;;8.60;2.00;;;14.00;99.90;;;;;;5073723;28;20459;-82
2023/08/31 06:44:06;;;;;;;5.88;2.00;;;14.10;99.90;;;;;;5060312;28;20056;-82
2023/08/31 06:46:37;;;;;;;5.95;2.30;;;14.20;99.90;;;;;;5044151;28;20464;-85
2023/08/31 06:49:04;;;;;;;7.00;2.22;;;14.20;99.90;;;;;;5055849;28;20044;-83
2023/08/31 06:51:31;;;;;;;11.50;2.40;;;14.20;99.90;;;;;;5069993;28;20533;-82
2023/08/31 06:54:06;;;;;;;6.93;2.67;;;14.30;99.90;;;;;;5059150;28;20125;-85
2023/08/31 06:56:32;;;;;;;9.90;2.15;;;14.30;99.90;;;;;;5042791;28;20049;-82
2023/08/31 06:59:00;;;;;;;16.05;2.35;;;14.40;99.90;;;;;;5066376;28;20105;-85
2023/08/31 07:01:28;;;;;;;7.38;2.20;;;14.40;99.90;;;;;;5059594;28;20094;-84
2023/08/31 07:03:54;;;;;;;8.73;2.33;;;14.50;99.90;;;;;;5056208;28;20495;-84
2023/08/31 07:06:21;;;;;;;9.50;2.45;;;14.50;99.90;;;;;;5041796;28;20040;-84
2023/08/31 07:08:49;;;;;;;11.05;2.92;;;14.50;99.90;;;;;;5055656;28;20037;-82
2023/08/31 07:11:16;;;;;;;7.82;2.40;;;14.60;99.90;;;;;;5040938;28;20060;-85
2023/08/31 07:13:42;;;;;;;8.35;2.45;;;14.70;99.90;;;;;;5061503;28;20044;-82
2023/08/31 07:16:09;;;;;;;12.82;2.88;;;14.70;99.90;;;;;;5054742;28;20041;-83
2023/08/31 07:18:36;;;;;;;10.77;2.90;;;14.80;99.90;;;;;;5060041;28;20128;-85
2023/08/31 07:21:04;;;;;;;11.43;3.40;;;14.80;99.90;;;;;;5050142;28;20040;-82
2023/08/31 07:23:32;;;;;;;11.52;2.67;;;14.90;99.90;;;;;;5056050;28;20132;-83
2023/08/31 07:25:59;;;;;;;7.35;2.50;;;15.00;99.90;;;;;;5059231;28;20060;-81
2023/08/31 07:31:12;;;;;;;7.18;2.47;;;15.10;99.90;;;;;;5058165;28;20099;-84
2023/08/31 07:33:38;;;;;;;9.85;2.83;;;15.20;99.90;;;;;;5067673;28;20470;-85
2023/08/31 07:36:06;;;;;;;6.72;2.60;;;15.20;99.90;;;;;;5057413;28;20037;-83
2023/08/31 07:38:34;;;;;;;7.50;2.42;;;15.40;99.90;;;;;;5054176;28;20032;-85
2023/08/31 07:41:01;;;;;;;7.45;2.22;;;15.50;99.90;;;;;;5027508;28;20360;-84
2023/08/31 07:43:27;;;;;;;15.27;2.70;;;15.70;99.90;;;;;;5054453;28;20095;-83
2023/08/31 07:45:54;;;;;;;6.78;2.20;;;15.80;99.90;;;;;;5070711;28;20437;-85
2023/08/31 07:48:23;;;;;;;12.40;2.85;;;16.00;99.90;;;;;;5039241;28;20119;-84
2023/08/31 07:50:49;;;;;;;10.50;2.90;;;16.10;99.90;;;;;;5072374;28;20503;-83
2023/08/31 07:53:17;;;;;;;12.18;3.05;;;16.30;99.90;;;;;;5069227;28;20128;-84
2023/08/31 07:55:44;;;;;;;10.45;2.40;;;16.50;99.90;;;;;;5039517;28;20435;-84
2023/08/31 07:58:10;;;;;;;5.80;2.30;;;16.50;99.90;;;;;;5053564;28;20502;-82
2023/08/31 08:00:37;;;;;;;6.53;2.25;;;16.60;99.90;;;;;;5063387;28;20041;-83
2023/08/31 08:03:04;;;;;;;11.60;2.75;;;16.70;99.90;;;;;;5060822;28;20406;-80
2023/08/31 08:05:31;;;;;;;10.93;3.00;;;16.70;99.90;;;;;;5059508;28;20376;-82
2023/08/31 08:10:27;;;;;;;9.35;2.03;;;16.90;99.90;;;;;;5057667;28;20045;-84
2023/08/31 08:12:56;;;;;;;9.40;2.45;;;16.90;99.90;;;;;;5054313;28;20040;-82
2023/08/31 08:15:22;;;;;;;10.82;1.92;;;16.80;99.90;;;;;;5056884;28;20467;-84
2023/08/31 08:20:36;;;;;;;7.95;2.03;;;16.80;99.90;;;;;;5043226;28;20049;-87
2023/08/31 08:23:03;;;;;;;6.20;1.95;;;16.80;99.90;;;;;;5063233;28;20068;-85
2023/08/31 08:25:29;;;;;;;5.80;2.05;;;16.80;99.90;;;;;;5046049;28;20183;-86
2023/08/31 08:27:57;;;;;;;9.13;2.40;;;16.90;99.90;;;;;;5045951;28;20452;-86
2023/08/31 08:30:24;;;;;;;8.43;2.15;;;16.90;99.90;;;;;;5057865;28;20467;-81
2023/08/31 08:32:50;;;;;;;7.82;2.42;;;17.10;99.90;;;;;;5071221;28;20119;-82
2023/08/31 08:35:17;;;;;;;5.82;2.10;;;17.10;99.90;;;;;;5058407;28;20116;-82
2023/08/31 08:40:30;;;;;;;7.60;1.90;;;17.20;99.90;;;;;;5064624;28;20105;-82
2023/08/31 08:42:57;;;;;;;9.13;1.98;;;17.20;99.90;;;;;;5058692;28;20348;-80
2023/08/31 08:45:24;;;;;;;6.53;2.05;;;17.10;99.90;;;;;;5075673;28;20044;-80
2023/08/31 08:47:52;;;;;;;11.45;2.28;;;17.10;99.90;;;;;;5064246;28;20039;-80
2023/08/31 08:50:18;;;;;;;5.43;1.60;;;17.20;99.90;;;;;;5058578;28;20064;-83
2023/08/31 08:52:45;;;;;;;7.80;1.95;;;17.30;99.90;;;;;;5075907;28;20040;-81
2023/08/31 08:55:12;;;;;;;6.75;1.95;;;17.40;99.90;;;;;;5057126;28;20109;-84
2023/08/31 08:57:40;;;;;;;7.40;2.13;;;17.50;99.90;;;;;;5075815;28;20043;-82
2023/08/31 09:00:08;;;;;;;7.32;1.80;;;17.50;99.90;;;;;;5067414;28;20130;-80
2023/08/31 09:02:34;;;;;;;7.10;1.80;;;17.40;99.90;;;;;;5021916;28;20077;-79
2023/08/31 09:05:01;;;;;;;7.07;1.85;;;17.40;99.90;;;;;;5055428;28;20051;-82
2023/08/31 09:07:28;;;;;;;5.93;1.65;;;17.30;99.90;;;;;;5066730;28;20040;-80
2023/08/31 09:09:55;;;;;;;7.18;1.60;;;17.30;99.90;;;;;;5051139;28;20414;-81
2023/08/31 09:12:21;;;;;;;7.82;2.00;;;17.40;99.90;;;;;;5074724;28;20044;-81
2023/08/31 09:14:48;;;;;;;9.75;2.10;;;17.30;99.90;;;;;;5074467;28;20485;-80
2023/08/31 09:17:17;;;;;;;6.43;1.80;;;17.30;99.90;;;;;;5058129;28;20132;-80
2023/08/31 09:19:44;;;;;;;6.47;2.20;;;17.30;99.90;;;;;;5060685;28;20072;-80
2023/08/31 09:22:10;;;;;;;7.75;2.03;;;17.30;99.90;;;;;;5057297;28;20455;-80
2023/08/31 09:24:37;;;;;;;6.38;2.00;;;17.40;99.90;;;;;;5056502;28;20105;-81
2023/08/31 09:29:51;;;;;;;8.27;2.05;;;17.40;99.90;;;;;;5060749;28;20045;-81
2023/08/31 09:32:17;;;;;;;11.55;2.08;;;17.30;99.90;;;;;;5068891;28;20064;-81
2023/08/31 09:34:44;;;;;;;5.63;1.98;;;17.20;99.90;;;;;;5070006;28;20061;-83
2023/08/31 09:37:11;;;;;;;4.95;2.00;;;17.00;99.90;;;;;;5070518;28;20036;-82
2023/08/31 09:39:38;;;;;;;5.85;1.98;;;17.00;99.90;;;;;;5043176;28;20399;-82
2023/08/31 09:42:04;;;;;;;8.63;1.70;;;17.00;99.90;;;;;;5034162;28;20037;-80
2023/08/31 09:44:31;;;;;;;21.48;3.00;;;17.00;99.90;;;;;;5052922;28;20049;-79
2023/08/31 09:46:58;;;;;;;5.75;1.67;;;16.90;99.90;;;;;;5070106;28;20112;-80
2023/08/31 09:49:24;;;;;;;6.45;1.80;;;16.90;99.90;;;;;;5058178;28;20363;-82
2023/08/31 09:51:51;;;;;;;6.13;1.60;;;16.70;99.90;;;;;;5063792;28;20118;-80
2023/08/31 09:54:18;;;;;;;6.78;2.15;;;16.70;99.90;;;;;;5043567;28;20049;-82
2023/08/31 09:56:45;;;;;;;5.63;2.05;;;16.70;99.90;;;;;;5049713;28;20044;-80
2023/08/31 09:59:11;;;;;;;10.10;1.92;;;16.60;99.90;;;;;;5050491;28;20471;-81
2023/08/31 10:01:38;;;;;;;9.93;2.15;;;16.50;99.90;;;;;;5065417;28;20124;-80
2023/08/31 10:04:06;;;;;;;8.65;2.25;;;16.30;99.90;;;;;;5040152;28;20041;-78
2023/08/31 10:06:32;;;;;;;6.05;2.08;;;16.20;99.90;;;;;;5063444;28;20052;-80
2023/08/31 10:08:59;;;;;;;8.35;2.83;;;16.20;99.90;;;;;;5069020;28;20398;-78
2023/08/31 10:11:26;;;;;;;11.80;3.00;;;16.10;99.90;;;;;;5073742;28;20483;-78
2023/08/31 10:13:54;;;;;;;15.02;3.15;;;16.10;99.90;;;;;;5066684;28;20102;-81
2023/08/31 10:16:21;;;;;;;8.15;3.03;;;16.30;99.90;;;;;;5059960;28;20055;-80
2023/08/31 10:18:48;;;;;;;13.98;3.70;;;16.40;99.90;;;;;;5073605;28;20037;-79
2023/08/31 10:21:15;;;;;;;9.98;4.07;;;16.50;99.90;;;;;;5072416;28;20045;-80
2023/08/31 10:23:41;;;;;;;18.00;4.30;;;16.50;99.90;;;;;;5059782;28;20036;-80
2023/08/31 10:26:08;;;;;;;9.48;4.10;;;16.40;99.90;;;;;;5065692;28;20037;-79
2023/08/31 10:28:36;;;;;;;7.93;3.47;;;16.30;99.90;;;;;;5041620;28;20037;-81
2023/08/31 10:31:03;;;;;;;9.10;3.85;;;16.50;99.90;;;;;;5064775;28;20080;-82
2023/08/31 10:33:30;;;;;;;11.02;3.65;;;16.70;99.90;;;;;;5070523;28;20148;-81
2023/08/31 10:35:57;;;;;;;18.38;6.10;;;16.80;99.90;;;;;;5060071;28;20118;-81
2023/08/31 10:38:28;;;;;;;13.60;5.32;;;17.10;99.90;;;;;;5055154;28;20052;-78
2023/08/31 10:40:55;;;;;;;14.10;5.18;;;17.30;99.90;;;;;;5054475;28;20057;-80
2023/08/31 10:43:22;;;;;;;9.65;3.92;;;17.70;99.90;;;;;;5050354;28;20048;-81
2023/08/31 10:45:54;;;;;;;11.85;3.45;;;17.90;99.90;;;;;;5061386;28;20049;-79
2023/08/31 10:48:21;;;;;;;7.75;3.28;;;17.80;99.90;;;;;;5065873;28;20041;-82
2023/08/31 10:50:48;;;;;;;9.07;3.63;;;18.00;99.90;;;;;;5063682;28;20061;-82
2023/08/31 10:53:14;;;;;;;10.82;3.33;;;18.00;99.90;;;;;;5060199;28;20110;-82
2023/08/31 10:55:41;;;;;;;9.27;3.13;;;18.00;99.90;;;;;;5064054;28;20476;-82
2023/08/31 10:58:08;;;;;;;7.03;2.63;;;18.40;99.90;;;;;;5059352;28;20057;-82
2023/08/31 11:00:34;;;;;;;8.65;2.60;;;18.90;99.90;;;;;;5048881;28;20075;-79
2023/08/31 11:03:01;;;;;;;10.38;2.50;;;19.10;99.90;;;;;;5047905;28;20467;-81
2023/08/31 11:05:31;;;;;;;7.72;2.47;;;19.00;99.90;;;;;;5060238;28;20102;-83
2023/08/31 11:07:57;;;;;;;10.80;2.40;;;19.00;99.90;;;;;;5059284;28;20155;-79
2023/08/31 11:10:26;;;;;;;11.52;2.47;;;19.00;99.90;;;;;;5072543;28;20128;-82
2023/08/31 11:12:55;;;;;;;8.57;1.95;;;18.80;99.90;;;;;;5062799;28;20123;-79
2023/08/31 11:15:22;;;;;;;7.15;2.30;;;18.80;99.90;;;;;;5046369;28;20125;-84
2023/08/31 11:17:49;;;;;;;8.60;2.33;;;18.80;99.90;;;;;;5057135;28;20049;-81
2023/08/31 11:20:16;;;;;;;6.15;2.20;;;18.90;99.90;;;;;;5057863;28;20101;-80
2023/08/31 11:22:43;;;;;;;7.70;2.33;;;19.00;99.90;;;;;;5076057;28;20044;-82
2023/08/31 11:25:10;;;;;;;7.15;2.00;;;19.00;99.90;;;;;;5059501;28;20078;-79
2023/08/31 11:27:37;;;;;;;7.13;2.28;;;19.00;99.90;;;;;;5068219;28;20037;-78
2023/08/31 11:30:04;;;;;;;7.20;2.45;;;18.80;99.90;;;;;;5053980;28;20036;-79
2023/08/31 11:32:30;;;;;;;8.95;2.53;;;18.60;99.90;;;;;;5051779;28;20037;-83
2023/08/31 11:34:57;;;;;;;10.55;3.15;;;18.40;99.90;;;;;;5059634;28;20051;-83
2023/08/31 11:37:26;;;;;;;12.05;3.00;;;18.50;99.90;;;;;;5068786;28;20097;-82
2023/08/31 11:39:53;;;;;;;10.70;3.10;;;18.70;99.90;;;;;;5069192;28;20105;-80
2023/08/31 11:42:20;;;;;;;10.00;3.53;;;18.80;99.90;;;;;;5055911;28;20033;-81
2023/08/31 11:44:46;;;;;;;8.07;2.80;;;18.70;99.90;;;;;;5048037;28;20041;-78
2023/08/31 11:47:14;;;;;;;8.27;2.58;;;18.60;99.90;;;;;;5064009;28;20078;-81
2023/08/31 11:49:41;;;;;;;7.25;2.58;;;18.50;99.90;;;;;;5067204;28;20036;-79
2023/08/31 11:52:07;;;;;;;10.15;2.75;;;18.70;99.90;;;;;;5042202;28;20186;-80
2023/08/31 11:54:34;;;;;;;7.07;2.03;;;18.80;99.90;;;;;;5055562;28;20102;-82
2023/08/31 11:57:01;;;;;;;8.07;2.42;;;18.90;99.90;;;;;;5069604;28;20113;-82
2023/08/31 11:59:28;;;;;;;8.38;2.20;;;19.10;99.90;;;;;;5064716;28;20049;-80
2023/08/31 12:01:54;;;;;;;6.07;2.08;;;19.30;99.90;;;;;;5061857;28;20048;-83
2023/08/31 12:04:25;;;;;;;10.90;2.20;;;19.50;99.90;;;;;;5049095;28;20208;-80
2023/08/31 12:06:52;;;;;;;8.18;2.00;;;19.70;99.90;;;;;;5058104;28;20110;-81
2023/08/31 12:09:19;;;;;;;7.47;1.83;;;19.80;99.90;;;;;;5076659;28;20047;-81
2023/08/31 12:11:45;;;;;;;9.60;1.90;;;20.10;99.90;;;;;;5071054;28;20037;-82
2023/08/31 12:14:12;;;;;;;8.60;2.33;;;20.20;99.90;;;;;;5072294;28;20064;-81
2023/08/31 12:16:39;;;;;;;10.68;2.00;;;20.00;99.90;;;;;;5070874;28;20425;-81
2023/08/31 12:19:05;;;;;;;9.65;2.42;;;20.10;99.90;;;;;;5058438;28;20051;-82
2023/08/31 12:21:32;;;;;;;6.07;2.00;;;20.10;99.90;;;;;;5067793;28;20040;-81
2023/08/31 12:23:59;;;;;;;7.25;2.25;;;20.00;99.90;;;;;;5063690;28;20127;-80
2023/08/31 12:26:29;;;;;;;7.85;2.30;;;19.90;99.90;;;;;;5058794;28;20400;-81
2023/08/31 12:28:55;;;;;;;7.75;2.40;;;19.90;99.90;;;;;;5076293;28;20123;-79
2023/08/31 12:31:22;;;;;;;7.30;2.08;;;19.90;99.90;;;;;;5076868;28;20068;-83
2023/08/31 12:33:49;;;;;;;7.47;2.17;;;19.90;99.90;;;;;;5059847;28;20033;-81
2023/08/31 12:36:15;;;;;;;11.45;2.83;;;19.90;99.90;;;;;;5058873;28;20036;-82
2023/08/31 12:38:43;;;;;;;9.80;2.53;;;19.90;99.90;;;;;;5068756;28;20040;-80
2023/08/31 12:41:10;;;;;;;8.75;2.63;;;19.80;99.90;;;;;;5075199;28;20047;-83
2023/08/31 12:43:37;;;;;;;9.00;2.70;;;19.80;99.90;;;;;;5064793;28;20448;-81
2023/08/31 12:46:05;;;;;;;8.02;2.60;;;19.80;99.90;;;;;;5047813;28;20111;-80
2023/08/31 12:48:34;;;;;;;10.13;2.63;;;19.80;99.90;;;;;;5065419;28;20033;-80
2023/08/31 12:51:01;;;;;;;8.40;2.88;;;19.80;99.90;;;;;;5083351;28;20131;-83
2023/08/31 12:53:28;;;;;;;7.55;2.60;;;19.70;99.90;;;;;;5042308;28;20073;-81
2023/08/31 12:55:54;;;;;;;10.13;3.08;;;19.50;99.90;;;;;;5071063;28;20048;-80
2023/08/31 12:58:24;;;;;;;8.80;2.50;;;19.60;99.90;;;;;;5070254;28;20466;-79
2023/08/31 13:00:53;;;;;;;7.63;2.55;;;19.60;99.90;;;;;;5064558;28;20098;-81
2023/08/31 13:03:20;;;;;;;6.95;2.50;;;19.50;99.90;;;;;;5055880;28;20321;-78
2023/08/31 13:05:46;;;;;;;7.47;2.30;;;19.40;99.90;;;;;;5068101;28;20414;-81
2023/08/31 13:08:13;;;;;;;6.72;2.30;;;19.20;99.90;;;;;;5079426;28;20514;-79
2023/08/31 13:10:41;;;;;;;7.93;2.20;;;19.00;99.90;;;;;;5074980;28;20041;-80